Time;durP1;ratioP1;P1;durP2;ratioP2;P2;SDS_P1;SDS_P2;PMS_P1;PMS_P2;Temp;Humidity;BMP_temperature;BMP_pressure;BME280_temperature;BME280_humidity;BME280_pressure;Samples;Min_cycle;Max_cycle;Signal;HPM_P1;HPM_P2
2021/01/25 00:01:34;;;;;;;0.40;0.30;;;;;;;2.51;100.00;99356.84;5053244;28;20453;-66
2021/01/25 00:04:01;;;;;;;0.40;0.30;;;;;;;2.48;100.00;99359.28;5053109;28;20504;-66
2021/01/25 00:06:27;;;;;;;0.60;0.60;;;;;;;2.44;100.00;99361.72;5052981;28;20528;-66
2021/01/25 00:08:53;;;;;;;0.80;0.80;;;;;;;2.49;100.00;99366.22;5052725;28;20531;-67
2021/01/25 00:11:20;;;;;;;1.07;0.93;;;;;;;2.49;100.00;99360.88;5052833;28;20473;-67
2021/01/25 00:13:46;;;;;;;0.40;0.30;;;;;;;2.47;100.00;99363.03;5052978;28;20881;-66
2021/01/25 00:16:12;;;;;;;0.57;0.47;;;;;;;2.40;100.00;99362.56;5053096;28;20435;-65
2021/01/25 00:18:38;;;;;;;0.40;0.30;;;;;;;2.38;100.00;99367.34;5052845;28;20921;-66
2021/01/25 00:21:05;;;;;;;0.40;0.30;;;;;;;2.38;100.00;99356.66;5055722;28;20901;-66
2021/01/25 00:23:31;;;;;;;2.30;2.10;;;;;;;2.36;100.00;99362.31;5057012;28;20458;-65
2021/01/25 00:25:57;;;;;;;0.40;0.30;;;;;;;2.39;100.00;99371.63;5056722;28;20480;-67
2021/01/25 00:28:24;;;;;;;1.10;0.80;;;;;;;2.45;100.00;99370.53;5057071;28;20820;-66
2021/01/25 00:30:50;;;;;;;0.70;0.63;;;;;;;2.50;100.00;99367.81;5057015;28;20488;-66
2021/01/25 00:33:16;;;;;;;3.50;1.07;;;;;;;2.52;100.00;99374.50;5056742;28;20460;-66
2021/01/25 00:35:42;;;;;;;0.40;0.30;;;;;;;2.57;100.00;99367.50;5056858;28;20881;-66
2021/01/25 00:38:10;;;;;;;0.40;0.30;;;;;;;2.57;100.00;99368.31;5056782;28;20491;-67
2021/01/25 00:40:37;;;;;;;3.50;0.63;;;;;;;2.60;100.00;99366.94;5056749;28;20453;-66
2021/01/25 00:43:03;;;;;;;1.37;1.03;;;;;;;2.63;100.00;99361.06;5056817;28;20472;-67
2021/01/25 00:45:29;;;;;;;0.50;0.40;;;;;;;2.61;100.00;99368.53;5056600;28;20867;-67
2021/01/25 00:47:55;;;;;;;1.47;1.17;;;;;;;2.56;100.00;99361.34;5056639;28;20441;-67
2021/01/25 00:50:23;;;;;;;0.40;0.30;;;;;;;2.64;100.00;99378.69;5056895;28;20478;-66
2021/01/25 00:52:49;;;;;;;0.40;0.30;;;;;;;2.64;100.00;99379.47;5056783;28;20925;-66
2021/01/25 00:55:17;;;;;;;0.40;0.30;;;;;;;2.68;100.00;99380.50;5056684;28;20453;-66
2021/01/25 00:57:43;;;;;;;0.70;0.40;;;;;;;2.67;100.00;99378.13;5056639;28;20450;-65
2021/01/25 01:00:11;;;;;;;0.40;0.30;;;;;;;2.60;100.00;99375.75;5056396;28;20471;-66
2021/01/25 01:02:38;;;;;;;0.53;0.50;;;;;;;2.57;100.00;99381.69;5056276;28;20500;-66
2021/01/25 01:05:06;;;;;;;0.40;0.30;;;;;;;2.56;100.00;99379.25;5056654;28;20525;-67
2021/01/25 01:07:32;;;;;;;1.17;1.07;;;;;;;2.57;100.00;99371.00;5056593;28;20446;-65
2021/01/25 01:09:58;;;;;;;0.40;0.30;;;;;;;2.53;100.00;99372.63;5056672;28;20532;-66
2021/01/25 01:12:25;;;;;;;2.63;2.37;;;;;;;2.53;100.00;99386.78;5056387;28;20531;-66
2021/01/25 01:14:52;;;;;;;2.37;0.73;;;;;;;2.53;100.00;99380.63;5058008;28;20909;-67
2021/01/25 01:17:18;;;;;;;0.40;0.30;;;;;;;2.52;100.00;99381.69;5056356;28;20449;-65
2021/01/25 01:19:44;;;;;;;0.40;0.30;;;;;;;2.54;100.00;99384.91;5056073;28;20448;-65
2021/01/25 01:22:11;;;;;;;0.40;0.30;;;;;;;2.51;100.00;99385.44;5056022;28;20582;-66
2021/01/25 01:24:37;;;;;;;0.40;0.30;;;;;;;2.53;100.00;99386.78;5056578;28;20522;-66
2021/01/25 01:27:04;;;;;;;0.40;0.30;;;;;;;2.49;100.00;99385.72;5056535;28;20540;-65
2021/01/25 01:29:31;;;;;;;0.50;0.40;;;;;;;2.44;100.00;99384.97;5056606;28;20477;-68
2021/01/25 01:31:58;;;;;;;0.60;0.60;;;;;;;2.43;100.00;99383.34;5055747;28;20860;-69
2021/01/25 01:34:24;;;;;;;0.40;0.30;;;;;;;2.43;100.00;99384.16;5055861;28;20866;-67
2021/01/25 01:36:50;;;;;;;0.90;0.90;;;;;;;2.46;100.00;99380.13;5055820;28;20572;-68
2021/01/25 01:39:19;;;;;;;0.40;0.30;;;;;;;2.47;100.00;99385.19;5058667;28;20493;-67
2021/01/25 01:41:45;;;;;;;0.40;0.30;;;;;;;2.49;100.00;99379.59;5058709;28;20472;-67
2021/01/25 01:44:11;;;;;;;4.63;1.57;;;;;;;2.45;100.00;99389.22;5061836;28;20442;-67
2021/01/25 01:46:42;;;;;;;1.70;0.60;;;;;;;2.38;100.00;99386.06;5061346;28;20493;-67
2021/01/25 01:49:09;;;;;;;0.40;0.30;;;;;;;2.36;100.00;99383.69;5061112;28;20514;-67
2021/01/25 01:51:36;;;;;;;1.43;0.50;;;;;;;2.31;100.00;99377.56;5060409;28;20450;-66
2021/01/25 01:54:03;;;;;;;1.20;1.07;;;;;;;2.23;100.00;99385.06;5059922;28;20451;-66
2021/01/25 01:56:29;;;;;;;0.40;0.40;;;;;;;2.21;100.00;99387.25;5059299;28;20963;-67
2021/01/25 01:58:55;;;;;;;0.40;0.30;;;;;;;2.18;100.00;99389.66;5059761;28;20453;-66
2021/01/25 02:01:22;;;;;;;0.40;0.30;;;;;;;2.08;100.00;99392.34;5059040;28;20446;-66
2021/01/25 02:03:49;;;;;;;0.40;0.30;;;;;;;2.01;100.00;99387.31;5058353;28;20482;-66
2021/01/25 02:06:18;;;;;;;0.60;0.50;;;;;;;1.99;100.00;99386.78;5058541;28;20478;-66
2021/01/25 02:08:45;;;;;;;0.40;0.30;;;;;;;2.00;100.00;99391.06;5059046;28;20481;-67
2021/01/25 02:11:12;;;;;;;0.67;0.67;;;;;;;2.01;100.00;99398.00;5058693;28;20461;-66
2021/01/25 02:13:39;;;;;;;1.43;0.73;;;;;;;1.98;100.00;99395.88;5058838;28;20480;-67
2021/01/25 02:16:06;;;;;;;0.40;0.30;;;;;;;1.97;100.00;99400.41;5058650;28;20442;-67
2021/01/25 02:18:34;;;;;;;0.40;0.30;;;;;;;1.93;100.00;99402.03;5058132;28;20457;-66
2021/01/25 02:21:03;;;;;;;1.33;0.53;;;;;;;1.89;100.00;99408.19;5058349;28;20526;-66
2021/01/25 02:23:46;;;;;;;0.90;0.90;;;;;;;1.85;100.00;99399.13;5060324;28;20481;-68
2021/01/25 02:26:21;;;;;;;2.73;0.93;;;;;;;1.75;100.00;99402.63;5059253;28;20470;-67
2021/01/25 02:28:49;;;;;;;0.50;0.50;;;;;;;1.77;100.00;99409.31;5058028;28;20977;-66
2021/01/25 02:31:16;;;;;;;1.07;0.83;;;;;;;1.73;100.00;99413.59;5057620;28;20446;-67
2021/01/25 02:33:45;;;;;;;0.40;0.30;;;;;;;1.69;100.00;99412.53;5057760;28;20481;-67
2021/01/25 02:36:13;;;;;;;0.40;0.30;;;;;;;1.62;100.00;99413.88;5057441;28;20964;-67
2021/01/25 02:38:42;;;;;;;1.63;0.60;;;;;;;1.62;100.00;99417.34;5057664;28;20472;-66
2021/01/25 02:41:10;;;;;;;0.80;0.73;;;;;;;1.65;100.00;99416.03;5057726;28;20449;-67
2021/01/25 02:43:37;;;;;;;2.20;0.50;;;;;;;1.63;100.00;99413.59;5056712;28;20495;-67
2021/01/25 02:46:07;;;;;;;0.40;0.30;;;;;;;1.71;100.00;99420.25;5057428;28;20487;-68
2021/01/25 02:48:34;;;;;;;0.40;0.30;;;;;;;1.73;100.00;99432.28;5057118;28;20447;-67
2021/01/25 02:51:01;;;;;;;1.37;0.67;;;;;;;1.74;100.00;99427.72;5057452;28;20446;-67
2021/01/25 02:53:27;;;;;;;0.70;0.33;;;;;;;1.82;100.00;99429.06;5057430;28;20442;-68
2021/01/25 02:55:56;;;;;;;0.53;0.50;;;;;;;1.84;100.00;99424.22;5061414;28;20949;-68
2021/01/25 02:58:22;;;;;;;0.97;0.87;;;;;;;1.93;100.00;99435.94;5077347;28;20796;-67
2021/01/25 03:00:49;;;;;;;0.40;0.30;;;;;;;1.93;100.00;99430.59;5077675;28;20449;-66
2021/01/25 03:03:17;;;;;;;0.67;0.67;;;;;;;1.93;100.00;99428.72;5076143;28;20444;-67
2021/01/25 03:05:43;;;;;;;1.57;1.47;;;;;;;1.95;100.00;99434.63;5076074;28;20507;-67
2021/01/25 03:08:09;;;;;;;2.90;1.07;;;;;;;1.97;100.00;99429.78;5076985;28;20498;-69
2021/01/25 03:10:36;;;;;;;0.40;0.30;;;;;;;2.00;100.00;99423.13;5075537;28;20445;-68
2021/01/25 03:13:02;;;;;;;0.40;0.30;;;;;;;2.01;100.00;99420.16;5073977;28;20978;-67
2021/01/25 03:15:29;;;;;;;0.40;0.30;;;;;;;2.05;100.00;99425.75;5073906;28;20970;-67
2021/01/25 03:17:56;;;;;;;0.67;0.67;;;;;;;2.10;100.00;99428.41;5076880;28;20813;-66
2021/01/25 03:20:23;;;;;;;1.00;0.50;;;;;;;2.12;100.00;99423.56;5076056;28;20445;-67
2021/01/25 03:22:49;;;;;;;0.40;0.30;;;;;;;2.17;100.00;99426.25;5076081;28;20465;-67
2021/01/25 03:25:15;;;;;;;0.40;0.30;;;;;;;2.19;100.00;99431.31;5075134;28;20469;-67
2021/01/25 03:27:41;;;;;;;0.40;0.30;;;;;;;2.20;100.00;99427.56;5075849;28;20445;-65
2021/01/25 03:30:10;;;;;;;0.40;0.30;;;;;;;2.17;100.00;99434.25;5076256;28;20457;-67
2021/01/25 03:32:37;;;;;;;2.30;1.63;;;;;;;2.17;100.00;99433.44;5075734;28;20449;-66
2021/01/25 03:35:03;;;;;;;1.43;1.33;;;;;;;2.16;100.00;99432.66;5075016;28;20461;-67
2021/01/25 03:37:31;;;;;;;0.40;0.40;;;;;;;2.07;100.00;99439.63;5075506;28;20453;-67
2021/01/25 03:40:01;;;;;;;0.40;0.30;;;;;;;2.20;100.00;99439.03;5075282;28;20433;-67
2021/01/25 03:42:27;;;;;;;2.10;1.87;;;;;;;2.24;100.00;99439.28;5075303;28;20522;-66
2021/01/25 03:44:54;;;;;;;0.97;0.83;;;;;;;2.25;100.00;99441.69;5076654;28;20497;-66
2021/01/25 03:47:20;;;;;;;0.40;0.30;;;;;;;2.25;100.00;99443.56;5075413;28;20512;-66
2021/01/25 03:49:46;;;;;;;0.40;0.30;;;;;;;2.23;100.00;99443.84;5074886;28;20460;-67
2021/01/25 03:52:12;;;;;;;4.00;1.27;;;;;;;2.23;100.00;99441.16;5075043;28;20507;-67
2021/01/25 03:54:39;;;;;;;2.30;0.60;;;;;;;2.31;100.00;99449.69;5074319;28;20496;-66
2021/01/25 03:57:05;;;;;;;0.40;0.30;;;;;;;2.42;100.00;99451.22;5075408;28;20473;-66
2021/01/25 03:59:31;;;;;;;0.40;0.30;;;;;;;2.46;100.00;99449.63;5075452;28;20430;-66
2021/01/25 04:01:58;;;;;;;0.40;0.30;;;;;;;2.39;100.00;99447.25;5075075;28;20445;-67
2021/01/25 04:04:24;;;;;;;0.40;0.30;;;;;;;2.40;100.00;99450.72;5075248;28;20477;-67
2021/01/25 04:06:51;;;;;;;0.40;0.30;;;;;;;2.37;100.00;99454.72;5075158;28;20485;-67
2021/01/25 04:09:17;;;;;;;0.40;0.40;;;;;;;2.34;100.00;99455.28;5075552;28;20453;-67
2021/01/25 04:11:44;;;;;;;2.67;0.80;;;;;;;2.33;100.00;99452.88;5075698;28;20453;-66
2021/01/25 04:14:10;;;;;;;0.40;0.30;;;;;;;2.33;100.00;99458.22;5075463;28;20475;-67
2021/01/25 04:16:37;;;;;;;1.57;1.07;;;;;;;2.34;100.00;99457.16;5075775;28;20468;-66
2021/01/25 04:19:03;;;;;;;0.40;0.30;;;;;;;2.31;100.00;99449.69;5075533;28;20793;-69
2021/01/25 04:21:29;;;;;;;0.50;0.40;;;;;;;2.25;100.00;99441.69;5075300;28;20463;-67
2021/01/25 04:23:56;;;;;;;1.03;0.93;;;;;;;2.25;100.00;99440.88;5075158;28;20465;-67
2021/01/25 04:26:22;;;;;;;1.50;1.40;;;;;;;2.25;100.00;99455.03;5075496;28;20513;-66
2021/01/25 04:28:49;;;;;;;2.30;0.93;;;;;;;2.24;100.00;99449.97;5076047;28;20440;-67
2021/01/25 04:31:15;;;;;;;0.97;0.83;;;;;;;2.24;100.00;99456.13;5076414;28;20449;-67
2021/01/25 04:33:42;;;;;;;0.50;0.50;;;;;;;2.24;100.00;99453.44;5075247;28;20507;-67
2021/01/25 04:36:09;;;;;;;0.60;0.60;;;;;;;2.24;100.00;99456.13;5075131;28;20452;-66
2021/01/25 04:38:35;;;;;;;0.40;0.30;;;;;;;2.24;100.00;99460.66;5074629;28;20488;-66
2021/01/25 04:41:02;;;;;;;0.50;0.50;;;;;;;2.17;100.00;99458.31;5074449;28;20449;-66
2021/01/25 04:43:31;;;;;;;0.50;0.40;;;;;;;2.15;100.00;99470.31;5074418;28;20975;-67
2021/01/25 04:45:58;;;;;;;0.40;0.30;;;;;;;2.15;100.00;99473.78;5074282;28;20570;-67
2021/01/25 04:48:27;;;;;;;0.40;0.30;;;;;;;2.12;100.00;99474.31;5074382;28;20445;-66
2021/01/25 04:50:55;;;;;;;0.50;0.50;;;;;;;2.15;100.00;99479.13;5074496;28;20449;-67
2021/01/25 04:53:22;;;;;;;0.40;0.30;;;;;;;2.22;100.00;99482.31;5075325;28;20446;-68
2021/01/25 04:55:50;;;;;;;0.40;0.40;;;;;;;2.26;100.00;99478.03;5075420;28;20501;-66
2021/01/25 04:58:17;;;;;;;0.70;0.70;;;;;;;2.21;100.00;99486.06;5074560;28;20942;-66
2021/01/25 05:00:44;;;;;;;0.40;0.30;;;;;;;2.22;100.00;99485.00;5074221;28;20449;-66
2021/01/25 05:03:11;;;;;;;0.40;0.33;;;;;;;2.25;100.00;99484.44;5072801;28;20476;-66
2021/01/25 05:05:37;;;;;;;0.60;0.60;;;;;;;2.25;100.00;99489.78;5072963;28;20971;-66
2021/01/25 05:08:04;;;;;;;0.50;0.40;;;;;;;2.27;100.00;99490.31;5076474;28;20444;-67
2021/01/25 05:10:33;;;;;;;9.87;3.03;;;;;;;2.26;100.00;99493.28;5076217;28;20484;-66
2021/01/25 05:12:59;;;;;;;2.10;2.00;;;;;;;2.30;100.00;99496.97;5076073;28;20441;-67
2021/01/25 05:15:28;;;;;;;0.77;0.77;;;;;;;2.30;100.00;99496.16;5076563;28;20610;-67
2021/01/25 05:17:55;;;;;;;0.40;0.30;;;;;;;2.30;100.00;99499.63;5076918;28;20971;-67
2021/01/25 05:20:27;;;;;;;1.40;1.30;;;;;;;2.28;100.00;99493.78;5076385;28;20884;-65
2021/01/25 05:22:54;;;;;;;1.23;1.13;;;;;;;2.24;100.00;99496.19;5077008;28;20806;-66
2021/01/25 05:25:28;;;;;;;11.10;2.37;;;;;;;2.31;100.00;99497.78;5075794;28;21005;-67
2021/01/25 05:27:56;;;;;;;0.40;0.30;;;;;;;2.36;100.00;99490.56;5076463;28;20439;-68
2021/01/25 05:30:23;;;;;;;1.00;0.40;;;;;;;2.37;100.00;99496.69;5076184;28;20444;-67
2021/01/25 05:32:51;;;;;;;0.90;0.50;;;;;;;2.28;100.00;99489.25;5077184;28;20939;-67
2021/01/25 05:35:19;;;;;;;0.60;0.60;;;;;;;2.31;100.00;99490.56;5076286;28;20466;-67
2021/01/25 05:37:52;;;;;;;0.77;0.77;;;;;;;2.27;100.00;99490.31;5076191;28;20491;-66
2021/01/25 05:40:21;;;;;;;0.40;0.30;;;;;;;2.26;100.00;99494.06;5075906;28;20487;-66
2021/01/25 05:42:47;;;;;;;1.40;0.60;;;;;;;2.27;100.00;99487.66;5076045;28;21013;-66
2021/01/25 05:45:14;;;;;;;0.40;0.33;;;;;;;2.28;100.00;99488.44;5075457;28;20847;-67
2021/01/25 05:47:45;;;;;;;1.43;1.33;;;;;;;2.24;100.00;99493.53;5056744;28;20839;-65
2021/01/25 05:50:24;;;;;;;1.33;0.67;;;;;;;2.22;100.00;99493.00;5055758;28;20452;-67
2021/01/25 05:52:51;;;;;;;0.70;0.60;;;;;;;2.16;100.00;99491.41;5055655;28;20440;-67
2021/01/25 05:55:18;;;;;;;0.50;0.40;;;;;;;2.19;100.00;99490.88;5055281;28;21023;-67
2021/01/25 05:57:44;;;;;;;0.40;0.30;;;;;;;2.18;100.00;99494.63;5055357;28;20961;-66
2021/01/25 06:00:11;;;;;;;3.00;0.80;;;;;;;2.21;100.00;99494.09;5055286;28;21103;-67
2021/01/25 06:02:41;;;;;;;3.83;1.70;;;;;;;2.17;100.00;99493.03;5055881;28;20443;-66
2021/01/25 06:05:12;;;;;;;14.07;1.57;;;;;;;2.23;100.00;99494.59;5055057;28;20486;-67
2021/01/25 06:07:41;;;;;;;0.70;0.70;;;;;;;2.23;100.00;99504.50;5055474;28;20560;-66
2021/01/25 06:10:13;;;;;;;0.50;0.40;;;;;;;2.28;100.00;99496.44;5055413;28;20442;-67
2021/01/25 06:12:43;;;;;;;0.40;0.30;;;;;;;2.30;100.00;99496.97;5055935;28;20461;-67
2021/01/25 06:15:17;;;;;;;4.97;0.63;;;;;;;2.32;100.00;99499.38;5055196;28;20500;-67
2021/01/25 06:17:45;;;;;;;12.50;1.77;;;;;;;2.34;100.00;99497.22;5054268;28;20426;-65
2021/01/25 06:20:15;;;;;;;0.40;0.30;;;;;;;2.33;100.00;99500.97;5055280;28;20454;-67
2021/01/25 06:22:42;;;;;;;0.40;0.30;;;;;;;2.35;100.00;99512.22;5054777;28;20968;-66
2021/01/25 06:25:10;;;;;;;0.70;0.50;;;;;;;2.34;100.00;99516.72;5054792;28;20462;-67
2021/01/25 06:27:38;;;;;;;8.23;1.70;;;;;;;2.33;100.00;99511.66;5054700;28;20530;-65
2021/01/25 06:30:05;;;;;;;0.57;0.57;;;;;;;2.31;100.00;99519.97;5054818;28;20442;-67
2021/01/25 06:32:32;;;;;;;0.40;0.30;;;;;;;2.33;100.00;99522.34;5054622;28;20492;-66
2021/01/25 06:35:02;;;;;;;0.40;0.37;;;;;;;2.35;100.00;99517.56;5054483;28;20473;-67
2021/01/25 06:37:29;;;;;;;2.10;2.00;;;;;;;2.38;100.00;99519.66;5055094;28;20441;-66
2021/01/25 06:39:58;;;;;;;4.00;1.07;;;;;;;2.32;100.00;99518.09;5054467;28;20477;-67
2021/01/25 06:42:31;;;;;;;0.80;0.80;;;;;;;2.32;100.00;99526.09;5054247;28;20442;-67
2021/01/25 06:45:00;;;;;;;1.80;1.60;;;;;;;2.36;100.00;99527.16;5054245;28;20524;-67
2021/01/25 06:47:27;;;;;;;0.40;0.30;;;;;;;2.40;100.00;99528.22;5054573;28;20482;-66
2021/01/25 06:49:53;;;;;;;1.10;1.10;;;;;;;2.37;100.00;99526.88;5054215;28;20457;-68
2021/01/25 06:52:19;;;;;;;2.70;1.07;;;;;;;2.31;100.00;99529.84;5054538;28;20442;-67
2021/01/25 06:54:45;;;;;;;0.60;0.57;;;;;;;2.28;100.00;99531.97;5054326;28;20465;-67
2021/01/25 06:57:22;;;;;;;1.57;1.47;;;;;;;2.30;100.00;99534.38;5054503;28;20457;-66
2021/01/25 06:59:50;;;;;;;12.13;2.73;;;;;;;2.30;100.00;99534.38;5054137;28;20931;-67
2021/01/25 07:02:19;;;;;;;0.40;0.30;;;;;;;2.31;100.00;99540.53;5054283;28;20446;-67
2021/01/25 07:04:46;;;;;;;0.60;0.60;;;;;;;2.33;100.00;99544.53;5054144;28;20446;-67
2021/01/25 07:07:23;;;;;;;0.50;0.47;;;;;;;2.24;100.00;99552.28;5053801;28;20514;-66
2021/01/25 07:09:49;;;;;;;0.77;0.70;;;;;;;2.24;100.00;99554.16;5054058;28;20423;-68
2021/01/25 07:12:16;;;;;;;1.23;1.13;;;;;;;2.24;100.00;99560.31;5054103;28;20491;-67
2021/01/25 07:14:43;;;;;;;0.90;0.60;;;;;;;2.30;100.00;99555.75;5072367;22;20530;-66
2021/01/25 07:17:11;;;;;;;0.70;0.70;;;;;;;2.29;100.00;99559.50;5033899;28;20788;-65
2021/01/25 07:19:37;;;;;;;0.40;0.30;;;;;;;2.21;100.00;99562.72;5033857;28;20872;-66
2021/01/25 07:22:04;;;;;;;0.50;0.40;;;;;;;2.22;100.00;99561.66;5033831;28;20446;-66
2021/01/25 07:24:31;;;;;;;0.43;0.37;;;;;;;2.23;100.00;99569.41;5033760;28;20502;-66
2021/01/25 07:26:58;;;;;;;0.63;0.60;;;;;;;2.26;100.00;99570.75;5033350;28;20479;-66
2021/01/25 07:29:26;;;;;;;1.30;1.20;;;;;;;2.28;100.00;99579.28;5033645;28;20458;-66
2021/01/25 07:31:53;;;;;;;2.60;2.37;;;;;;;2.30;100.00;99574.44;5033737;28;20453;-66
2021/01/25 07:34:21;;;;;;;0.40;0.30;;;;;;;2.35;100.00;99579.00;5033643;28;20462;-66
2021/01/25 07:36:47;;;;;;;0.70;0.67;;;;;;;2.33;100.00;99571.25;5033447;28;20478;-65
2021/01/25 07:39:15;;;;;;;0.50;0.40;;;;;;;2.36;100.00;99586.75;5033250;28;20473;-66
2021/01/25 07:41:42;;;;;;;0.50;0.50;;;;;;;2.32;100.00;99577.66;5033499;28;20458;-66
2021/01/25 07:44:09;;;;;;;0.40;0.30;;;;;;;2.37;100.00;99583.00;5033165;28;21184;-70
2021/01/25 07:46:36;;;;;;;7.93;1.53;;;;;;;2.36;100.00;99586.75;5033392;28;20514;-71
2021/01/25 07:49:03;;;;;;;1.93;1.73;;;;;;;2.39;100.00;99588.06;5033119;28;20958;-65
2021/01/25 07:51:33;;;;;;;0.87;0.87;;;;;;;2.40;100.00;99590.47;5033085;28;21012;-69
2021/01/25 07:54:00;;;;;;;0.50;0.40;;;;;;;2.44;100.00;99593.41;5032895;28;20439;-67
2021/01/25 07:56:27;;;;;;;1.33;1.23;;;;;;;2.44;100.00;99590.72;5033304;28;20521;-67
2021/01/25 07:59:04;;;;;;;1.90;1.80;;;;;;;2.45;100.00;99598.47;5033337;28;20439;-67
2021/01/25 08:01:34;;;;;;;2.40;1.30;;;;;;;2.45;100.00;99601.16;5033092;28;20425;-67
2021/01/25 08:04:03;;;;;;;0.50;0.40;;;;;;;2.48;100.00;99605.16;5033544;28;20805;-68
2021/01/25 08:06:32;;;;;;;0.40;0.30;;;;;;;2.47;100.00;99601.66;5033114;28;20490;-67
2021/01/25 08:09:00;;;;;;;7.10;0.80;;;;;;;2.41;100.00;99602.75;5033146;28;20439;-68
2021/01/25 08:11:26;;;;;;;0.43;0.40;;;;;;;2.51;100.00;99605.38;5032962;28;20860;-67
2021/01/25 08:14:02;;;;;;;0.40;0.30;;;;;;;2.58;100.00;99607.00;5032934;28;20501;-67
2021/01/25 08:16:35;;;;;;;1.07;1.07;;;;;;;2.47;100.00;99606.22;5033127;28;20462;-67
2021/01/25 08:19:07;;;;;;;1.47;1.40;;;;;;;2.44;100.00;99609.44;5033026;28;20438;-67
2021/01/25 08:21:36;;;;;;;3.90;0.70;;;;;;;2.41;100.00;99609.97;5033103;28;20427;-67
2021/01/25 08:24:05;;;;;;;0.50;0.43;;;;;;;2.44;100.00;99620.13;5032889;28;20446;-67
2021/01/25 08:26:32;;;;;;;2.73;1.17;;;;;;;2.41;100.00;99615.31;5032624;28;20519;-67
2021/01/25 08:29:02;;;;;;;1.17;0.70;;;;;;;2.43;100.00;99618.50;5032941;28;20478;-67
2021/01/25 08:31:31;;;;;;;6.00;1.57;;;;;;;2.49;100.00;99620.91;5032675;28;20856;-67
2021/01/25 08:34:00;;;;;;;0.70;0.70;;;;;;;2.53;100.00;99619.31;5032882;28;20857;-67
2021/01/25 08:36:32;;;;;;;0.50;0.40;;;;;;;2.51;100.00;99624.09;5032649;28;20431;-67
2021/01/25 08:39:09;;;;;;;0.70;0.70;;;;;;;2.55;100.00;99627.03;5032863;28;20448;-67
2021/01/25 08:41:37;;;;;;;0.40;0.33;;;;;;;2.50;100.00;99627.84;5035134;28;20427;-67
2021/01/25 08:44:12;;;;;;;0.40;0.40;;;;;;;2.39;100.00;99633.47;5036766;28;20501;-67
2021/01/25 08:46:39;;;;;;;0.40;0.30;;;;;;;2.43;100.00;99642.56;5036409;28;20459;-67
2021/01/25 08:49:16;;;;;;;0.50;0.40;;;;;;;2.48;100.00;99630.00;5036386;28;20945;-68
2021/01/25 08:51:54;;;;;;;1.03;1.03;;;;;;;2.57;100.00;99635.59;5036776;28;20497;-68
2021/01/25 08:54:23;;;;;;;0.40;0.40;;;;;;;2.55;100.00;99629.72;5036677;28;20517;-67
2021/01/25 08:56:49;;;;;;;0.40;0.30;;;;;;;2.61;100.00;99638.50;5036620;28;20443;-68
2021/01/25 08:59:29;;;;;;;0.90;0.87;;;;;;;2.67;100.00;99645.47;5036536;28;20449;-67
2021/01/25 09:01:55;;;;;;;0.50;0.50;;;;;;;2.71;100.00;99646.53;5036510;28;20455;-68
2021/01/25 09:04:21;;;;;;;3.13;1.80;;;;;;;2.76;100.00;99649.16;5036510;28;20498;-67
2021/01/25 09:06:49;;;;;;;0.70;0.43;;;;;;;2.83;100.00;99647.00;5036388;28;20490;-66
2021/01/25 09:09:15;;;;;;;0.90;0.87;;;;;;;2.90;100.00;99654.75;5036416;28;20486;-67
2021/01/25 09:11:41;;;;;;;5.60;1.13;;;;;;;2.82;99.90;99652.63;5035952;28;20937;-66
2021/01/25 09:14:08;;;;;;;0.40;0.30;;;;;;;2.82;99.85;99647.28;5036011;28;20490;-67
2021/01/25 09:16:35;;;;;;;2.30;0.90;;;;;;;2.88;99.58;99651.53;5036205;28;20484;-67
2021/01/25 09:19:01;;;;;;;1.90;1.17;;;;;;;2.97;100.00;99655.25;5036215;28;20812;-67
2021/01/25 09:21:27;;;;;;;0.40;0.30;;;;;;;2.96;99.60;99656.31;5036158;28;20447;-67
2021/01/25 09:23:53;;;;;;;3.83;0.70;;;;;;;3.00;99.25;99673.41;5036003;28;20521;-67
2021/01/25 09:26:19;;;;;;;0.50;0.50;;;;;;;3.04;99.92;99672.59;5035982;28;20480;-67
2021/01/25 09:28:46;;;;;;;2.90;1.40;;;;;;;3.18;99.84;99672.81;5036061;28;20470;-68
2021/01/25 09:31:14;;;;;;;0.63;0.50;;;;;;;3.27;99.78;99681.84;5035619;28;20466;-67
2021/01/25 09:33:41;;;;;;;0.40;0.30;;;;;;;3.28;98.48;99680.00;5035837;28;20520;-67
2021/01/25 09:36:07;;;;;;;4.83;1.70;;;;;;;3.28;98.02;99685.34;5035779;28;20471;-66
2021/01/25 09:38:33;;;;;;;2.10;2.00;;;;;;;3.21;97.99;99682.97;5035486;28;20989;-68
2021/01/25 09:41:00;;;;;;;2.40;0.87;;;;;;;3.26;97.66;99690.97;5035434;28;20957;-67
2021/01/25 09:43:26;;;;;;;0.40;0.30;;;;;;;3.28;97.70;99696.88;5035418;28;20462;-67
2021/01/25 09:45:52;;;;;;;1.83;1.33;;;;;;;3.28;96.99;99704.09;5035614;28;20494;-68
2021/01/25 09:48:18;;;;;;;3.27;3.07;;;;;;;3.16;96.17;99701.72;5035624;28;20453;-67
2021/01/25 09:50:47;;;;;;;0.70;0.40;;;;;;;3.17;96.69;99711.34;5035375;28;20958;-68
2021/01/25 09:53:14;;;;;;;1.00;1.00;;;;;;;3.16;96.09;99707.06;5034198;28;20447;-66
2021/01/25 09:55:40;;;;;;;0.80;0.60;;;;;;;3.16;95.90;99709.75;5035409;28;20542;-66
2021/01/25 09:58:06;;;;;;;0.50;0.40;;;;;;;3.14;96.76;99714.56;5035415;28;20546;-67
2021/01/25 10:00:32;;;;;;;1.23;1.13;;;;;;;3.18;97.01;99714.81;5035430;28;20447;-67
2021/01/25 10:02:58;;;;;;;1.23;0.60;;;;;;;3.27;97.09;99718.53;5035064;28;20562;-67
2021/01/25 10:05:24;;;;;;;1.23;1.13;;;;;;;3.35;96.99;99720.63;5034964;28;21024;-67
2021/01/25 10:07:51;;;;;;;1.43;1.43;;;;;;;3.29;95.65;99733.25;5035267;28;20876;-68
2021/01/25 10:10:18;;;;;;;4.00;1.03;;;;;;;3.16;94.54;99723.13;5034896;28;20446;-67
2021/01/25 10:12:44;;;;;;;0.50;0.40;;;;;;;3.20;95.20;99724.19;5035173;28;20453;-67
2021/01/25 10:15:13;;;;;;;0.63;0.63;;;;;;;3.24;95.49;99722.56;5034734;28;20479;-67
2021/01/25 10:17:39;;;;;;;2.20;0.80;;;;;;;3.19;94.64;99733.28;5035153;28;20857;-66
2021/01/25 10:20:06;;;;;;;7.70;1.80;;;;;;;3.23;94.18;99739.69;5034711;28;20534;-67
2021/01/25 10:22:33;;;;;;;1.60;1.50;;;;;;;3.22;93.48;99726.56;5034705;28;20953;-66
2021/01/25 10:25:00;;;;;;;0.40;0.30;;;;;;;3.30;93.89;99734.03;5034536;28;20463;-67
2021/01/25 10:27:26;;;;;;;0.40;0.30;;;;;;;3.18;93.64;99730.88;5034528;28;21002;-67
2021/01/25 10:29:52;;;;;;;0.50;0.40;;;;;;;3.18;93.58;99728.19;5034512;28;21010;-67
2021/01/25 10:32:21;;;;;;;0.40;0.30;;;;;;;3.15;93.80;99732.22;5034431;28;20950;-67
2021/01/25 10:34:47;;;;;;;1.23;1.20;;;;;;;3.14;94.65;99740.50;5034502;28;21076;-67
2021/01/25 10:37:13;;;;;;;2.73;0.73;;;;;;;3.17;93.89;99729.28;5034757;28;20457;-66
2021/01/25 10:39:39;;;;;;;0.70;0.60;;;;;;;3.18;94.56;99731.66;5034361;28;20454;-67
2021/01/25 10:42:06;;;;;;;0.40;0.33;;;;;;;3.26;94.78;99735.66;5034600;28;20443;-67
2021/01/25 10:44:32;;;;;;;0.53;0.40;;;;;;;3.32;94.02;99737.25;5034565;28;20557;-67
2021/01/25 10:46:58;;;;;;;1.30;1.20;;;;;;;3.36;92.93;99732.13;5034454;28;20483;-67
2021/01/25 10:49:24;;;;;;;0.40;0.40;;;;;;;3.35;92.51;99735.91;5034515;28;20443;-67
2021/01/25 10:51:50;;;;;;;0.67;0.50;;;;;;;3.41;92.79;99734.78;5034413;28;20565;-68
2021/01/25 10:54:22;;;;;;;3.30;0.83;;;;;;;3.46;92.32;99740.94;5034336;28;20538;-66
2021/01/25 10:56:48;;;;;;;1.17;1.07;;;;;;;3.52;93.13;99752.41;5034090;28;20852;-66
2021/01/25 10:59:15;;;;;;;1.23;1.13;;;;;;;3.55;92.98;99751.88;5034101;28;20500;-66
2021/01/25 11:01:41;;;;;;;1.83;1.50;;;;;;;3.56;91.70;99750.78;5034077;28;20449;-67
2021/01/25 11:04:07;;;;;;;0.87;0.87;;;;;;;3.52;91.51;99758.56;5033266;28;20467;-68
2021/01/25 11:06:34;;;;;;;0.40;0.30;;;;;;;3.47;91.73;99750.56;5033535;28;20479;-69
2021/01/25 11:09:00;;;;;;;0.50;0.30;;;;;;;3.49;92.17;99752.97;5033327;28;20509;-68
2021/01/25 11:11:26;;;;;;;4.43;1.53;;;;;;;3.42;91.33;99753.28;5033683;28;20493;-67
2021/01/25 11:13:52;;;;;;;5.50;0.70;;;;;;;3.40;91.83;99762.63;5033884;28;20812;-68
2021/01/25 11:16:19;;;;;;;0.40;0.30;;;;;;;3.35;92.51;99759.97;5033954;28;20443;-67
2021/01/25 11:18:45;;;;;;;1.90;0.70;;;;;;;3.36;92.71;99761.56;5033655;28;20589;-66
2021/01/25 11:21:11;;;;;;;2.67;2.47;;;;;;;3.36;93.45;99761.56;5033580;28;20867;-67
2021/01/25 11:23:38;;;;;;;0.40;0.30;;;;;;;3.40;93.00;99771.47;5033956;28;20451;-66
2021/01/25 11:26:04;;;;;;;1.23;0.60;;;;;;;3.44;92.32;99769.84;5033618;28;20478;-67
2021/01/25 11:28:30;;;;;;;0.40;0.20;;;;;;;3.43;92.13;99775.47;5033876;28;20439;-67
2021/01/25 11:30:56;;;;;;;0.93;0.70;;;;;;;3.45;92.17;99779.50;5033386;28;20972;-68
2021/01/25 11:33:23;;;;;;;0.50;0.50;;;;;;;3.46;92.55;99780.31;5033619;28;20946;-69
2021/01/25 11:35:49;;;;;;;0.40;0.30;;;;;;;3.45;93.75;99770.66;5033734;28;20516;-69